Главная страница
METAR-TAF:

METAR-TAF

Аэропорты :

Bardufoss, Норвегия

широта: 69-04N, долгота: 018-32E, высота над уровнем моря: 7 м

Текущие метеонаблюдения

Эта сводка был подготовлена 29 минут назад, в 20:20 UTC
Ветер 4 Узел от западно-северо-западный, изменяющийся между западный и северный
Температура 14°C
Влажность 67%
Давление 1013 hPa
Видимость 10 км и более
небольшая облачность на высоте 4000 фута

METAR: ENDU 132020Z 30004KT 270V010 9999 FEW040 14/08 Q1013 RMK WIND 1100FT 29007KT WIND 2200FT 36005KT

Время: 22:49 (20:49 UTC)

Прогноз

Эта сводка был подготовлена 3 часа и 49 минут назад, в 17:00 UTC
Прогноз действительный с 13-го 18 UTC до 14-го 18 UTC
Ветер 5 Узел от северный
Видимость 10 км и более
небольшая облачность на высоте 4000 фута
временами
С 14-го 09 UTC до 14-го 18 UTC
Отдельные облака на высоте 4000 фута, Кучево-дождевые.
Вероятность 30%
С 14-го 12 UTC до 14-го 18 UTC
гроза, дождь,

TAF: ENDU 131700Z 1318/1418 35005KT 9999 FEW040 TEMPO 1409/1418 SCT040CB PROB30 1412/1418 TSRA

Метеонаблюдения и прогнозы для более 4000 аэропортов (сводки METAR и TAF).

Имеющиеся станции представлены на карте желтыми и красными точками.

Чтобы увидеть название станции, наведите на нее мышь.

Затем щелкните, чтобы увидеть метеонаблюдения и метеопрогнозы.

Управление картой: чтобы увеличить масштаб, щелкните зеленые кнопки с черным крестиком; чтобы уменьшить масштаб, щелкните зеленую кнопку с тире; для просмотра соседних карт щелкайте зеленые стрелки.


METAR-TAF: